PWSweather.com
Personal Weather Stations
Station Observations
PWSLORIS
The Farm At Fox Bay, Loris, SC 29569

The Farm At Fox BayLoris, SC 29569

Lat: 34.067097, Lon: -78.86907

Elevation: 108

Station Type: Davis Vantage Pro2 with 24 hr. FARS and solar

http://www.lorisweather.com

Latest ConditionsUpdated 1:45:01 PM EDT Tuesday, Apr 21, 2015
Currently Today's Max Today's Min Today's Average
Temperature 72.6°F22.6°C 72.6°F22.6°C 60.9°F16.1°C 66.1°F18.9°C
Dew Point 53.4°F11.9°C 65.4°F18.6°C 49.1°F9.5°C 57.8°F14.3°C
Winds 2.3 mph NW3.7 kmh NW 6.7 mph NE10.8 kmh NE - 1.6 mph 2.6 kmh
Wind Gusts 7.0 mph11.3 kmh 11.0 mph17.7 kmh - -
Humidity 51% 93% 46% 77%
Pressure 29.89 in1012.2 mb 29.93 in1013.5 mb 29.76 in1007.8 mb -
Hour Temp Dew Point Humidity Winds Wind Gusts Pressure Precip Precip Rate Daily Precip Total
01:45 PM 72.6°F22.6°C 53.4°F11.9°C 51% 2.3 mph NW3.7 kmh NW 7.0 mph11.3 kmh 29.89 in1012.2 mb - 0.00 in0.0 mm 0.00 in0.0 mm
01:30 PM 71.8°F22.1°C 52.2°F11.2°C 50% 3.7 mph NW6.0 kmh NW 7.0 mph11.3 kmh 29.89 in1012.2 mb - 0.00 in0.0 mm 0.00 in0.0 mm
01:15 PM 71.8°F22.1°C 49.9°F9.9°C 46% 3.6 mph NNW5.8 kmh NNW 7.0 mph11.3 kmh 29.89 in1012.2 mb - 0.00 in0.0 mm 0.00 in0.0 mm
01:00 PM 71.5°F21.9°C 50.8°F10.4°C 48% 2.3 mph SW3.7 kmh SW 5.0 mph8.0 kmh 29.90 in1012.5 mb - 0.00 in0.0 mm 0.00 in0.0 mm
12:45 PM 71.7°F22.1°C 51.5°F10.8°C 49% 1.3 mph NW2.1 kmh NW 6.0 mph9.7 kmh 29.91 in1012.9 mb - 0.00 in0.0 mm 0.00 in0.0 mm
12:30 PM 70.9°F21.6°C 50.3°F10.2°C 48% 0.4 mph NW0.6 kmh NW 2.0 mph3.2 kmh 29.91 in1012.9 mb - 0.00 in0.0 mm 0.00 in0.0 mm
12:15 PM 70.2°F21.2°C 49.1°F9.5°C 47% 3.1 mph NW5.0 kmh NW 7.0 mph11.3 kmh 29.91 in1012.9 mb - 0.00 in0.0 mm 0.00 in0.0 mm
12:00 PM 69.8°F21.0°C 49.8°F9.9°C 49% 0.3 mph N0.5 kmh N 1.0 mph1.6 kmh 29.91 in1012.9 mb - 0.00 in0.0 mm 0.00 in0.0 mm
11:45 AM 69.6°F20.9°C 50.7°F10.4°C 51% 0.1 mph N0.2 kmh N 3.0 mph4.8 kmh 29.92 in1013.2 mb - 0.00 in0.0 mm 0.00 in0.0 mm
11:30 AM 69.2°F20.7°C 49.2°F9.6°C 49% 1.6 mph N2.6 kmh N 11.0 mph17.7 kmh 29.92 in1013.2 mb - 0.00 in0.0 mm 0.00 in0.0 mm
11:15 AM 68.5°F20.3°C 49.7°F9.8°C 51% 1.4 mph N2.3 kmh N 10.0 mph16.1 kmh 29.93 in1013.5 mb - 0.00 in0.0 mm 0.00 in0.0 mm
11:00 AM 68.6°F20.3°C 50.3°F10.2°C 52% 6.7 mph NE10.8 kmh NE 9.0 mph14.5 kmh 29.92 in1013.2 mb - 0.00 in0.0 mm 0.00 in0.0 mm
10:45 AM 68.3°F20.2°C 51.0°F10.6°C 54% 5.9 mph NNW9.5 kmh NNW 7.0 mph11.3 kmh 29.92 in1013.2 mb - 0.00 in0.0 mm 0.00 in0.0 mm
10:30 AM 68.1°F20.1°C 53.7°F12.1°C 60% 5.4 mph NNE8.7 kmh NNE 9.0 mph14.5 kmh 29.91 in1012.9 mb - 0.00 in0.0 mm 0.00 in0.0 mm
10:15 AM 67.1°F19.5°C 53.6°F12.0°C 62% 3.8 mph NE6.1 kmh NE 9.0 mph14.5 kmh 29.91 in1012.9 mb - 0.00 in0.0 mm 0.00 in0.0 mm
10:00 AM 67.5°F19.7°C 57.4°F14.1°C 70% 4.8 mph N7.7 kmh N 6.0 mph9.7 kmh 29.90 in1012.5 mb - 0.00 in0.0 mm 0.00 in0.0 mm
09:45 AM 66.5°F19.2°C 56.8°F13.8°C 71% 2.1 mph NNW3.4 kmh NNW 5.0 mph8.0 kmh 29.89 in1012.2 mb - 0.00 in0.0 mm 0.00 in0.0 mm
09:30 AM 66.4°F19.1°C 56.7°F13.7°C 71% 4.2 mph N6.8 kmh N 7.0 mph11.3 kmh 29.89 in1012.2 mb - 0.00 in0.0 mm 0.00 in0.0 mm
09:15 AM 65.9°F18.8°C 56.2°F13.4°C 71% 5.6 mph NNW9.0 kmh NNW 11.0 mph17.7 kmh 29.89 in1012.2 mb - 0.00 in0.0 mm 0.00 in0.0 mm
09:00 AM 65.2°F18.4°C 56.3°F13.5°C 73% 4.5 mph NW7.2 kmh NW 5.0 mph8.0 kmh 29.89 in1012.2 mb - 0.00 in0.0 mm 0.00 in0.0 mm
08:45 AM 64.7°F18.2°C 56.6°F13.7°C 75% 4.7 mph NW7.6 kmh NW 7.0 mph11.3 kmh 29.88 in1011.9 mb - 0.00 in0.0 mm 0.00 in0.0 mm
08:30 AM 64.1°F17.8°C 58.1°F14.5°C 81% 1.9 mph NNW3.1 kmh NNW 3.0 mph4.8 kmh 29.88 in1011.9 mb - 0.00 in0.0 mm 0.00 in0.0 mm
08:15 AM 63.5°F17.5°C 58.3°F14.6°C 83% 3.3 mph NW5.3 kmh NW 8.0 mph12.9 kmh 29.88 in1011.9 mb - 0.00 in0.0 mm 0.00 in0.0 mm
08:00 AM 63.0°F17.2°C 58.7°F14.8°C 86% 0.8 mph NNW1.3 kmh NNW 5.0 mph8.0 kmh 29.87 in1011.5 mb - 0.00 in0.0 mm 0.00 in0.0 mm
07:45 AM 62.2°F16.8°C 58.3°F14.6°C 87% 0.5 mph NW0.8 kmh NW 3.0 mph4.8 kmh 29.87 in1011.5 mb - 0.00 in0.0 mm 0.00 in0.0 mm
07:30 AM 61.9°F16.6°C 58.4°F14.7°C 88% 0.1 mph NW0.2 kmh NW -- 29.86 in1011.2 mb - 0.00 in0.0 mm 0.00 in0.0 mm
07:15 AM 61.2°F16.2°C 58.2°F14.6°C 90% Calm Calm -- 29.86 in1011.2 mb - 0.00 in0.0 mm 0.00 in0.0 mm
07:00 AM 60.9°F16.1°C 58.0°F14.4°C 90% Calm Calm -- 29.86 in1011.2 mb - 0.00 in0.0 mm 0.00 in0.0 mm
06:45 AM 61.1°F16.2°C 58.1°F14.5°C 90% 0.9 mph SW1.4 kmh SW -- 29.85 in1010.8 mb - 0.00 in0.0 mm 0.00 in0.0 mm
06:30 AM 61.1°F16.2°C 58.5°F14.7°C 91% 0.8 mph WNW1.3 kmh WNW 5.0 mph8.0 kmh 29.84 in1010.5 mb - 0.00 in0.0 mm 0.00 in0.0 mm
06:15 AM 61.4°F16.3°C 58.7°F14.8°C 91% 1.1 mph WSW1.8 kmh WSW 6.0 mph9.7 kmh 29.83 in1010.2 mb - 0.00 in0.0 mm 0.00 in0.0 mm
06:00 AM 61.8°F16.6°C 59.1°F15.1°C 91% Calm Calm -- 29.82 in1009.8 mb - 0.00 in0.0 mm 0.00 in0.0 mm
05:45 AM 62.0°F16.7°C 59.6°F15.3°C 92% Calm Calm -- 29.81 in1009.5 mb - 0.00 in0.0 mm 0.00 in0.0 mm
05:30 AM 62.3°F16.8°C 59.9°F15.5°C 92% 0.3 mph W0.5 kmh W 5.0 mph8.0 kmh 29.80 in1009.1 mb - 0.00 in0.0 mm 0.00 in0.0 mm
05:15 AM 62.5°F16.9°C 60.4°F15.8°C 93% Calm Calm -- 29.80 in1009.1 mb - 0.00 in0.0 mm 0.00 in0.0 mm
05:00 AM 62.6°F17.0°C 60.3°F15.7°C 92% Calm Calm -- 29.80 in1009.1 mb - 0.00 in0.0 mm 0.00 in0.0 mm
04:45 AM 63.0°F17.2°C 60.7°F15.9°C 92% Calm Calm -- 29.80 in1009.1 mb - 0.00 in0.0 mm 0.00 in0.0 mm
04:30 AM 63.6°F17.6°C 60.9°F16.1°C 91% Calm Calm -- 29.79 in1008.8 mb - 0.00 in0.0 mm 0.00 in0.0 mm
04:15 AM 64.3°F17.9°C 61.6°F16.4°C 91% Calm Calm -- 29.79 in1008.8 mb - 0.00 in0.0 mm 0.00 in0.0 mm
03:45 AM 64.6°F18.1°C 61.6°F16.4°C 90% Calm Calm -- 29.79 in1008.8 mb - 0.00 in0.0 mm 0.00 in0.0 mm
03:30 AM 64.9°F18.3°C 61.9°F16.6°C 90% Calm Calm -- 29.79 in1008.8 mb - 0.00 in0.0 mm 0.00 in0.0 mm
03:15 AM 65.1°F18.4°C 61.8°F16.6°C 89% Calm Calm -- 29.79 in1008.8 mb - 0.00 in0.0 mm 0.00 in0.0 mm
03:00 AM 65.5°F18.6°C 62.2°F16.8°C 89% Calm Calm -- 29.79 in1008.8 mb - 0.00 in0.0 mm 0.00 in0.0 mm
02:45 AM 65.7°F18.7°C 62.1°F16.7°C 88% 0.1 mph NE0.2 kmh NE -- 29.79 in1008.8 mb - 0.00 in0.0 mm 0.00 in0.0 mm
02:30 AM 66.1°F18.9°C 62.4°F16.9°C 88% Calm Calm 1.0 mph1.6 kmh 29.78 in1008.5 mb - 0.00 in0.0 mm 0.00 in0.0 mm
02:15 AM 66.4°F19.1°C 62.4°F16.9°C 87% 0.4 mph N0.6 kmh N 7.0 mph11.3 kmh 29.79 in1008.8 mb - 0.00 in0.0 mm 0.00 in0.0 mm
02:00 AM 66.7°F19.3°C 62.7°F17.1°C 87% Calm Calm -- 29.78 in1008.5 mb - 0.00 in0.0 mm 0.00 in0.0 mm
01:45 AM 67.1°F19.5°C 63.1°F17.3°C 87% 0.1 mph WSW0.2 kmh WSW -- 29.78 in1008.5 mb - 0.00 in0.0 mm 0.00 in0.0 mm
01:30 AM 67.4°F19.7°C 63.4°F17.4°C 87% 0.7 mph SSE1.1 kmh SSE 7.0 mph11.3 kmh 29.78 in1008.5 mb - 0.00 in0.0 mm 0.00 in0.0 mm
01:15 AM 67.6°F19.8°C 63.6°F17.6°C 87% Calm Calm 1.0 mph1.6 kmh 29.78 in1008.5 mb - 0.00 in0.0 mm 0.00 in0.0 mm
01:00 AM 68.0°F20.0°C 64.0°F17.8°C 87% 0.8 mph SE1.3 kmh SE 2.0 mph3.2 kmh 29.78 in1008.5 mb - 0.00 in0.0 mm 0.00 in0.0 mm
12:45 AM 68.1°F20.1°C 64.4°F18.0°C 88% 1.3 mph WNW2.1 kmh WNW 6.0 mph9.7 kmh 29.78 in1008.5 mb - 0.00 in0.0 mm 0.00 in0.0 mm
12:30 AM 68.1°F20.1°C 64.7°F18.2°C 89% 0.7 mph SW1.1 kmh SW 7.0 mph11.3 kmh 29.77 in1008.1 mb - 0.00 in0.0 mm 0.00 in0.0 mm
12:15 AM 67.9°F19.9°C 64.9°F18.3°C 90% 2.4 mph S3.9 kmh S 6.0 mph9.7 kmh 29.76 in1007.8 mb - 0.00 in0.0 mm 0.00 in0.0 mm
12:00 AM 67.8°F19.9°C 65.4°F18.6°C 92% 2.9 mph S4.7 kmh S 7.0 mph11.3 kmh 29.76 in1007.8 mb - 0.00 in0.0 mm 0.00 in0.0 mm